sensor_id;sensor_type;location;lat;lon;timestamp;P1;durP1;ratioP1;P2;durP2;ratioP2
8889;SDS011;4481;43.406;24.454;2023-06-24T00:00:01;13.10;;;11.80;;
8889;SDS011;4481;43.406;24.454;2023-06-24T00:02:32;15.47;;;11.67;;
8889;SDS011;4481;43.406;24.454;2023-06-24T00:04:59;13.40;;;12.10;;
8889;SDS011;4481;43.406;24.454;2023-06-24T00:07:26;13.33;;;12.03;;
8889;SDS011;4481;43.406;24.454;2023-06-24T00:09:52;16.47;;;13.03;;
8889;SDS011;4481;43.406;24.454;2023-06-24T00:12:19;13.03;;;11.60;;
8889;SDS011;4481;43.406;24.454;2023-06-24T00:14:45;12.73;;;11.43;;
8889;SDS011;4481;43.406;24.454;2023-06-24T00:17:12;13.90;;;11.97;;
8889;SDS011;4481;43.406;24.454;2023-06-24T00:19:38;13.70;;;12.10;;
8889;SDS011;4481;43.406;24.454;2023-06-24T00:22:05;14.97;;;11.90;;
8889;SDS011;4481;43.406;24.454;2023-06-24T00:24:31;16.67;;;13.13;;
8889;SDS011;4481;43.406;24.454;2023-06-24T00:26:57;12.93;;;11.57;;
8889;SDS011;4481;43.406;24.454;2023-06-24T00:29:23;18.67;;;11.53;;
8889;SDS011;4481;43.406;24.454;2023-06-24T00:31:49;12.43;;;11.20;;
8889;SDS011;4481;43.406;24.454;2023-06-24T00:34:16;13.73;;;11.23;;
8889;SDS011;4481;43.406;24.454;2023-06-24T00:36:45;13.37;;;12.07;;
8889;SDS011;4481;43.406;24.454;2023-06-24T00:39:12;14.03;;;12.10;;
8889;SDS011;4481;43.406;24.454;2023-06-24T00:41:38;16.30;;;11.77;;
8889;SDS011;4481;43.406;24.454;2023-06-24T00:44:04;14.77;;;11.17;;
8889;SDS011;4481;43.406;24.454;2023-06-24T00:46:31;12.53;;;11.33;;
8889;SDS011;4481;43.406;24.454;2023-06-24T00:48:58;12.70;;;11.40;;
8889;SDS011;4481;43.406;24.454;2023-06-24T00:51:26;13.13;;;11.33;;
8889;SDS011;4481;43.406;24.454;2023-06-24T00:53:55;13.13;;;11.93;;
8889;SDS011;4481;43.406;24.454;2023-06-24T00:56:22;17.23;;;11.87;;
8889;SDS011;4481;43.406;24.454;2023-06-24T00:58:53;16.20;;;12.30;;
8889;SDS011;4481;43.406;24.454;2023-06-24T01:01:20;13.77;;;11.60;;
8889;SDS011;4481;43.406;24.454;2023-06-24T01:03:46;17.83;;;11.20;;
8889;SDS011;4481;43.406;24.454;2023-06-24T01:06:13;14.80;;;12.60;;
8889;SDS011;4481;43.406;24.454;2023-06-24T01:08:40;15.30;;;12.97;;
8889;SDS011;4481;43.406;24.454;2023-06-24T01:11:07;14.03;;;12.20;;
8889;SDS011;4481;43.406;24.454;2023-06-24T01:13:33;14.27;;;12.03;;
8889;SDS011;4481;43.406;24.454;2023-06-24T01:16:00;16.77;;;11.20;;
8889;SDS011;4481;43.406;24.454;2023-06-24T01:18:36;17.83;;;11.87;;
8889;SDS011;4481;43.406;24.454;2023-06-24T01:21:06;12.40;;;10.80;;
8889;SDS011;4481;43.406;24.454;2023-06-24T01:29:34;15.60;;;11.80;;
8889;SDS011;4481;43.406;24.454;2023-06-24T01:32:13;13.87;;;12.17;;
8889;SDS011;4481;43.406;24.454;2023-06-24T01:34:46;18.30;;;12.87;;
8889;SDS011;4481;43.406;24.454;2023-06-24T01:37:19;14.37;;;11.90;;
8889;SDS011;4481;43.406;24.454;2023-06-24T01:39:49;13.20;;;11.87;;
8889;SDS011;4481;43.406;24.454;2023-06-24T01:42:21;13.90;;;12.50;;
8889;SDS011;4481;43.406;24.454;2023-06-24T01:44:48;13.57;;;11.90;;
8889;SDS011;4481;43.406;24.454;2023-06-24T01:47:17;14.63;;;13.20;;
8889;SDS011;4481;43.406;24.454;2023-06-24T01:49:47;14.33;;;12.43;;
8889;SDS011;4481;43.406;24.454;2023-06-24T01:52:17;14.93;;;12.87;;
8889;SDS011;4481;43.406;24.454;2023-06-24T01:54:46;18.07;;;12.47;;
8889;SDS011;4481;43.406;24.454;2023-06-24T01:57:14;15.60;;;12.67;;
8889;SDS011;4481;43.406;24.454;2023-06-24T01:59:43;13.83;;;12.33;;
8889;SDS011;4481;43.406;24.454;2023-06-24T02:02:11;14.80;;;12.83;;
8889;SDS011;4481;43.406;24.454;2023-06-24T02:04:39;14.63;;;13.03;;
8889;SDS011;4481;43.406;24.454;2023-06-24T02:07:06;14.60;;;12.47;;
8889;SDS011;4481;43.406;24.454;2023-06-24T02:09:34;13.80;;;12.50;;
8889;SDS011;4481;43.406;24.454;2023-06-24T02:12:02;15.87;;;12.13;;
8889;SDS011;4481;43.406;24.454;2023-06-24T02:14:30;14.50;;;12.97;;
8889;SDS011;4481;43.406;24.454;2023-06-24T02:16:59;14.80;;;11.87;;
8889;SDS011;4481;43.406;24.454;2023-06-24T02:19:27;15.57;;;13.43;;
8889;SDS011;4481;43.406;24.454;2023-06-24T02:21:56;14.93;;;13.00;;
8889;SDS011;4481;43.406;24.454;2023-06-24T02:24:24;13.83;;;12.40;;
8889;SDS011;4481;43.406;24.454;2023-06-24T02:26:52;13.67;;;12.30;;
8889;SDS011;4481;43.406;24.454;2023-06-24T02:29:19;15.97;;;12.83;;
8889;SDS011;4481;43.406;24.454;2023-06-24T02:31:47;17.03;;;12.60;;
8889;SDS011;4481;43.406;24.454;2023-06-24T02:34:13;13.63;;;12.40;;
8889;SDS011;4481;43.406;24.454;2023-06-24T02:36:40;13.70;;;12.30;;
8889;SDS011;4481;43.406;24.454;2023-06-24T02:39:06;16.77;;;12.60;;
8889;SDS011;4481;43.406;24.454;2023-06-24T02:41:33;14.00;;;12.60;;
8889;SDS011;4481;43.406;24.454;2023-06-24T02:43:59;14.13;;;12.63;;
8889;SDS011;4481;43.406;24.454;2023-06-24T02:46:25;13.50;;;12.20;;
8889;SDS011;4481;43.406;24.454;2023-06-24T02:48:55;16.33;;;12.50;;
8889;SDS011;4481;43.406;24.454;2023-06-24T02:51:22;16.77;;;12.90;;
8889;SDS011;4481;43.406;24.454;2023-06-24T02:53:49;14.80;;;12.73;;
8889;SDS011;4481;43.406;24.454;2023-06-24T02:56:17;17.57;;;13.00;;
8889;SDS011;4481;43.406;24.454;2023-06-24T02:58:46;13.37;;;11.97;;
8889;SDS011;4481;43.406;24.454;2023-06-24T03:01:12;14.43;;;12.40;;
8889;SDS011;4481;43.406;24.454;2023-06-24T03:03:40;14.53;;;13.03;;
8889;SDS011;4481;43.406;24.454;2023-06-24T03:06:07;17.37;;;12.40;;
8889;SDS011;4481;43.406;24.454;2023-06-24T03:08:37;18.13;;;14.00;;
8889;SDS011;4481;43.406;24.454;2023-06-24T03:11:04;18.67;;;13.47;;
8889;SDS011;4481;43.406;24.454;2023-06-24T03:13:31;19.93;;;13.93;;
8889;SDS011;4481;43.406;24.454;2023-06-24T03:15:57;16.53;;;13.70;;
8889;SDS011;4481;43.406;24.454;2023-06-24T03:18:24;16.27;;;14.37;;
8889;SDS011;4481;43.406;24.454;2023-06-24T03:20:50;15.40;;;13.67;;
8889;SDS011;4481;43.406;24.454;2023-06-24T03:23:17;16.53;;;13.70;;
8889;SDS011;4481;43.406;24.454;2023-06-24T03:25:43;15.77;;;14.13;;
8889;SDS011;4481;43.406;24.454;2023-06-24T03:28:09;13.97;;;12.30;;
8889;SDS011;4481;43.406;24.454;2023-06-24T03:30:36;18.33;;;13.83;;
8889;SDS011;4481;43.406;24.454;2023-06-24T03:33:02;14.73;;;13.23;;
8889;SDS011;4481;43.406;24.454;2023-06-24T03:35:28;19.63;;;12.97;;
8889;SDS011;4481;43.406;24.454;2023-06-24T03:37:57;19.33;;;12.90;;
8889;SDS011;4481;43.406;24.454;2023-06-24T03:40:23;14.47;;;12.97;;
8889;SDS011;4481;43.406;24.454;2023-06-24T03:42:49;17.53;;;13.87;;
8889;SDS011;4481;43.406;24.454;2023-06-24T03:45:15;18.70;;;13.90;;
8889;SDS011;4481;43.406;24.454;2023-06-24T03:47:42;19.33;;;14.10;;
8889;SDS011;4481;43.406;24.454;2023-06-24T03:50:09;18.90;;;14.37;;
8889;SDS011;4481;43.406;24.454;2023-06-24T03:52:35;18.77;;;13.40;;
8889;SDS011;4481;43.406;24.454;2023-06-24T03:55:02;16.20;;;14.50;;
8889;SDS011;4481;43.406;24.454;2023-06-24T03:57:29;16.17;;;14.53;;
8889;SDS011;4481;43.406;24.454;2023-06-24T03:59:55;15.47;;;13.87;;
8889;SDS011;4481;43.406;24.454;2023-06-24T04:02:21;19.47;;;15.00;;
8889;SDS011;4481;43.406;24.454;2023-06-24T04:04:48;15.63;;;14.03;;
8889;SDS011;4481;43.406;24.454;2023-06-24T04:07:16;17.97;;;14.77;;
8889;SDS011;4481;43.406;24.454;2023-06-24T04:09:51;16.07;;;14.37;;
8889;SDS011;4481;43.406;24.454;2023-06-24T04:12:19;15.87;;;14.27;;
8889;SDS011;4481;43.406;24.454;2023-06-24T04:14:46;15.37;;;13.77;;
8889;SDS011;4481;43.406;24.454;2023-06-24T04:17:12;16.07;;;12.73;;
8889;SDS011;4481;43.406;24.454;2023-06-24T04:19:38;14.70;;;12.93;;
8889;SDS011;4481;43.406;24.454;2023-06-24T04:22:05;14.43;;;13.03;;
8889;SDS011;4481;43.406;24.454;2023-06-24T04:24:31;16.97;;;13.70;;
8889;SDS011;4481;43.406;24.454;2023-06-24T04:26:57;16.07;;;13.97;;
8889;SDS011;4481;43.406;24.454;2023-06-24T04:29:24;15.33;;;13.83;;
8889;SDS011;4481;43.406;24.454;2023-06-24T04:31:50;15.20;;;13.37;;
8889;SDS011;4481;43.406;24.454;2023-06-24T04:34:16;16.00;;;13.60;;
8889;SDS011;4481;43.406;24.454;2023-06-24T04:36:42;15.30;;;13.70;;
8889;SDS011;4481;43.406;24.454;2023-06-24T04:39:09;15.93;;;14.40;;
8889;SDS011;4481;43.406;24.454;2023-06-24T04:41:35;14.77;;;13.27;;
8889;SDS011;4481;43.406;24.454;2023-06-24T04:44:01;15.07;;;13.57;;
8889;SDS011;4481;43.406;24.454;2023-06-24T04:46:28;14.93;;;13.43;;
8889;SDS011;4481;43.406;24.454;2023-06-24T04:48:55;15.97;;;14.47;;
8889;SDS011;4481;43.406;24.454;2023-06-24T04:51:21;15.93;;;14.10;;
8889;SDS011;4481;43.406;24.454;2023-06-24T04:53:47;16.10;;;14.50;;
8889;SDS011;4481;43.406;24.454;2023-06-24T04:56:14;15.07;;;13.47;;
8889;SDS011;4481;43.406;24.454;2023-06-24T04:58:40;16.37;;;14.67;;
8889;SDS011;4481;43.406;24.454;2023-06-24T05:01:06;16.07;;;14.57;;
8889;SDS011;4481;43.406;24.454;2023-06-24T05:03:32;16.60;;;15.00;;
8889;SDS011;4481;43.406;24.454;2023-06-24T05:05:59;18.27;;;16.13;;
8889;SDS011;4481;43.406;24.454;2023-06-24T05:08:25;17.97;;;16.10;;
8889;SDS011;4481;43.406;24.454;2023-06-24T05:10:51;16.77;;;15.07;;
8889;SDS011;4481;43.406;24.454;2023-06-24T05:13:18;17.03;;;15.27;;
8889;SDS011;4481;43.406;24.454;2023-06-24T05:15:44;19.07;;;17.23;;
8889;SDS011;4481;43.406;24.454;2023-06-24T05:18:10;17.67;;;15.87;;
8889;SDS011;4481;43.406;24.454;2023-06-24T05:20:36;18.07;;;16.47;;
8889;SDS011;4481;43.406;24.454;2023-06-24T05:23:03;18.10;;;16.37;;
8889;SDS011;4481;43.406;24.454;2023-06-24T05:25:29;18.50;;;16.60;;
8889;SDS011;4481;43.406;24.454;2023-06-24T05:27:55;19.17;;;17.03;;
8889;SDS011;4481;43.406;24.454;2023-06-24T05:30:22;20.43;;;17.00;;
8889;SDS011;4481;43.406;24.454;2023-06-24T05:32:48;18.77;;;17.07;;
8889;SDS011;4481;43.406;24.454;2023-06-24T05:35:14;19.03;;;17.20;;
8889;SDS011;4481;43.406;24.454;2023-06-24T05:37:40;18.77;;;17.03;;
8889;SDS011;4481;43.406;24.454;2023-06-24T05:40:07;19.27;;;17.57;;
8889;SDS011;4481;43.406;24.454;2023-06-24T05:42:34;19.80;;;17.07;;
8889;SDS011;4481;43.406;24.454;2023-06-24T05:45:00;19.77;;;17.87;;
8889;SDS011;4481;43.406;24.454;2023-06-24T05:47:27;19.13;;;17.23;;
8889;SDS011;4481;43.406;24.454;2023-06-24T05:49:53;18.20;;;16.50;;
8889;SDS011;4481;43.406;24.454;2023-06-24T05:52:19;18.53;;;16.73;;
8889;SDS011;4481;43.406;24.454;2023-06-24T05:54:46;19.67;;;17.67;;
8889;SDS011;4481;43.406;24.454;2023-06-24T05:57:12;18.53;;;17.03;;
8889;SDS011;4481;43.406;24.454;2023-06-24T05:59:38;19.43;;;17.73;;
8889;SDS011;4481;43.406;24.454;2023-06-24T06:02:04;20.33;;;18.30;;
8889;SDS011;4481;43.406;24.454;2023-06-24T06:04:32;19.83;;;18.13;;
8889;SDS011;4481;43.406;24.454;2023-06-24T06:06:58;20.53;;;18.73;;
8889;SDS011;4481;43.406;24.454;2023-06-24T06:09:24;19.43;;;17.73;;
8889;SDS011;4481;43.406;24.454;2023-06-24T06:11:50;19.87;;;18.10;;
8889;SDS011;4481;43.406;24.454;2023-06-24T06:14:16;20.10;;;17.93;;
8889;SDS011;4481;43.406;24.454;2023-06-24T06:16:43;19.27;;;17.47;;
8889;SDS011;4481;43.406;24.454;2023-06-24T06:19:09;19.87;;;17.97;;
8889;SDS011;4481;43.406;24.454;2023-06-24T06:21:36;20.17;;;17.30;;
8889;SDS011;4481;43.406;24.454;2023-06-24T06:24:02;18.03;;;16.33;;
8889;SDS011;4481;43.406;24.454;2023-06-24T06:26:29;18.93;;;17.17;;
8889;SDS011;4481;43.406;24.454;2023-06-24T06:28:55;20.67;;;18.70;;
8889;SDS011;4481;43.406;24.454;2023-06-24T06:31:21;19.00;;;17.20;;
8889;SDS011;4481;43.406;24.454;2023-06-24T06:33:50;19.30;;;17.37;;
8889;SDS011;4481;43.406;24.454;2023-06-24T06:36:17;20.03;;;18.10;;
8889;SDS011;4481;43.406;24.454;2023-06-24T06:38:43;19.27;;;17.47;;
8889;SDS011;4481;43.406;24.454;2023-06-24T06:41:10;17.63;;;16.05;;
8889;SDS011;4481;43.406;24.454;2023-06-24T06:43:36;18.43;;;16.70;;
8889;SDS011;4481;43.406;24.454;2023-06-24T06:46:03;16.23;;;14.73;;
8889;SDS011;4481;43.406;24.454;2023-06-24T06:48:29;15.63;;;14.07;;
8889;SDS011;4481;43.406;24.454;2023-06-24T06:50:56;17.27;;;15.60;;
8889;SDS011;4481;43.406;24.454;2023-06-24T06:53:22;17.70;;;15.90;;
8889;SDS011;4481;43.406;24.454;2023-06-24T06:55:48;17.87;;;15.97;;
8889;SDS011;4481;43.406;24.454;2023-06-24T06:58:15;16.85;;;15.15;;
8889;SDS011;4481;43.406;24.454;2023-06-24T07:00:41;17.58;;;15.98;;
8889;SDS011;4481;43.406;24.454;2023-06-24T07:03:07;18.58;;;16.83;;
8889;SDS011;4481;43.406;24.454;2023-06-24T07:05:33;17.00;;;15.30;;
8889;SDS011;4481;43.406;24.454;2023-06-24T07:07:59;16.48;;;14.98;;
8889;SDS011;4481;43.406;24.454;2023-06-24T07:10:25;18.25;;;15.98;;
8889;SDS011;4481;43.406;24.454;2023-06-24T07:12:52;17.02;;;15.43;;
8889;SDS011;4481;43.406;24.454;2023-06-24T07:15:23;18.20;;;15.20;;
8889;SDS011;4481;43.406;24.454;2023-06-24T07:17:50;15.75;;;14.38;;
8889;SDS011;4481;43.406;24.454;2023-06-24T07:20:16;16.73;;;15.05;;
8889;SDS011;4481;43.406;24.454;2023-06-24T07:22:42;16.75;;;13.95;;
8889;SDS011;4481;43.406;24.454;2023-06-24T07:25:09;22.73;;;15.88;;
8889;SDS011;4481;43.406;24.454;2023-06-24T07:27:35;15.85;;;14.35;;
8889;SDS011;4481;43.406;24.454;2023-06-24T07:30:02;15.65;;;14.15;;
8889;SDS011;4481;43.406;24.454;2023-06-24T07:32:29;16.58;;;14.85;;
8889;SDS011;4481;43.406;24.454;2023-06-24T07:34:55;16.52;;;15.13;;
8889;SDS011;4481;43.406;24.454;2023-06-24T07:37:22;17.20;;;15.50;;
8889;SDS011;4481;43.406;24.454;2023-06-24T07:39:48;15.70;;;14.30;;
8889;SDS011;4481;43.406;24.454;2023-06-24T07:42:14;15.40;;;13.70;;
8889;SDS011;4481;43.406;24.454;2023-06-24T07:44:43;16.23;;;14.73;;
8889;SDS011;4481;43.406;24.454;2023-06-24T07:47:10;16.73;;;14.77;;
8889;SDS011;4481;43.406;24.454;2023-06-24T07:49:36;15.63;;;13.80;;
8889;SDS011;4481;43.406;24.454;2023-06-24T07:52:03;14.75;;;13.25;;
8889;SDS011;4481;43.406;24.454;2023-06-24T07:54:29;16.20;;;14.60;;
8889;SDS011;4481;43.406;24.454;2023-06-24T07:56:56;16.77;;;15.02;;
8889;SDS011;4481;43.406;24.454;2023-06-24T07:59:22;15.18;;;13.77;;
8889;SDS011;4481;43.406;24.454;2023-06-24T08:01:49;17.75;;;13.85;;
8889;SDS011;4481;43.406;24.454;2023-06-24T08:04:16;19.70;;;14.13;;
8889;SDS011;4481;43.406;24.454;2023-06-24T08:06:42;13.43;;;12.23;;
8889;SDS011;4481;43.406;24.454;2023-06-24T08:09:08;13.60;;;12.15;;
8889;SDS011;4481;43.406;24.454;2023-06-24T08:11:34;17.33;;;12.05;;
8889;SDS011;4481;43.406;24.454;2023-06-24T08:14:00;13.43;;;11.98;;
8889;SDS011;4481;43.406;24.454;2023-06-24T08:16:27;13.15;;;11.75;;
8889;SDS011;4481;43.406;24.454;2023-06-24T08:18:53;12.73;;;11.55;;
8889;SDS011;4481;43.406;24.454;2023-06-24T08:21:20;13.57;;;12.40;;
8889;SDS011;4481;43.406;24.454;2023-06-24T08:23:46;13.02;;;11.73;;
8889;SDS011;4481;43.406;24.454;2023-06-24T08:26:13;12.30;;;11.07;;
8889;SDS011;4481;43.406;24.454;2023-06-24T08:28:39;12.90;;;11.82;;
8889;SDS011;4481;43.406;24.454;2023-06-24T08:31:05;11.90;;;10.88;;
8889;SDS011;4481;43.406;24.454;2023-06-24T08:33:32;12.73;;;11.50;;
8889;SDS011;4481;43.406;24.454;2023-06-24T08:35:58;12.13;;;11.05;;
8889;SDS011;4481;43.406;24.454;2023-06-24T08:38:25;13.15;;;11.82;;
8889;SDS011;4481;43.406;24.454;2023-06-24T08:40:52;13.57;;;12.20;;
8889;SDS011;4481;43.406;24.454;2023-06-24T08:43:18;12.95;;;11.75;;
8889;SDS011;4481;43.406;24.454;2023-06-24T08:45:44;13.25;;;11.85;;
8889;SDS011;4481;43.406;24.454;2023-06-24T08:48:11;13.98;;;12.23;;
8889;SDS011;4481;43.406;24.454;2023-06-24T08:50:40;12.85;;;11.70;;
8889;SDS011;4481;43.406;24.454;2023-06-24T08:53:09;13.55;;;12.15;;
8889;SDS011;4481;43.406;24.454;2023-06-24T08:55:39;11.77;;;10.68;;
8889;SDS011;4481;43.406;24.454;2023-06-24T08:58:06;11.80;;;10.70;;
8889;SDS011;4481;43.406;24.454;2023-06-24T09:00:32;15.32;;;11.80;;
8889;SDS011;4481;43.406;24.454;2023-06-24T09:02:59;15.95;;;14.35;;
8889;SDS011;4481;43.406;24.454;2023-06-24T09:05:26;12.88;;;11.65;;
8889;SDS011;4481;43.406;24.454;2023-06-24T09:07:52;11.38;;;10.27;;
8889;SDS011;4481;43.406;24.454;2023-06-24T09:10:28;10.05;;;9.05;;
8889;SDS011;4481;43.406;24.454;2023-06-24T09:12:56;13.48;;;10.32;;
8889;SDS011;4481;43.406;24.454;2023-06-24T09:15:22;9.93;;;8.93;;
8889;SDS011;4481;43.406;24.454;2023-06-24T09:17:49;9.18;;;8.32;;
8889;SDS011;4481;43.406;24.454;2023-06-24T09:20:15;11.52;;;8.40;;
8889;SDS011;4481;43.406;24.454;2023-06-24T09:22:45;9.48;;;8.48;;
8889;SDS011;4481;43.406;24.454;2023-06-24T09:25:16;10.38;;;8.43;;
8889;SDS011;4481;43.406;24.454;2023-06-24T09:27:46;9.02;;;8.15;;
8889;SDS011;4481;43.406;24.454;2023-06-24T09:30:17;9.85;;;8.95;;
8889;SDS011;4481;43.406;24.454;2023-06-24T09:32:44;10.77;;;8.88;;
8889;SDS011;4481;43.406;24.454;2023-06-24T09:35:11;9.18;;;8.27;;
8889;SDS011;4481;43.406;24.454;2023-06-24T09:37:37;9.38;;;8.57;;
8889;SDS011;4481;43.406;24.454;2023-06-24T09:40:04;9.67;;;8.13;;
8889;SDS011;4481;43.406;24.454;2023-06-24T09:42:34;12.73;;;9.38;;
8889;SDS011;4481;43.406;24.454;2023-06-24T09:45:03;10.30;;;9.37;;
8889;SDS011;4481;43.406;24.454;2023-06-24T09:47:31;10.10;;;9.23;;
8889;SDS011;4481;43.406;24.454;2023-06-24T09:49:57;10.13;;;9.13;;
8889;SDS011;4481;43.406;24.454;2023-06-24T09:52:23;11.98;;;9.15;;
8889;SDS011;4481;43.406;24.454;2023-06-24T09:54:51;10.20;;;9.07;;
8889;SDS011;4481;43.406;24.454;2023-06-24T09:57:22;9.60;;;8.77;;
8889;SDS011;4481;43.406;24.454;2023-06-24T09:59:51;9.85;;;8.90;;
8889;SDS011;4481;43.406;24.454;2023-06-24T10:02:18;9.93;;;9.13;;
8889;SDS011;4481;43.406;24.454;2023-06-24T10:04:45;9.48;;;8.70;;
8889;SDS011;4481;43.406;24.454;2023-06-24T10:07:12;10.98;;;9.82;;
8889;SDS011;4481;43.406;24.454;2023-06-24T10:09:40;9.80;;;8.80;;
8889;SDS011;4481;43.406;24.454;2023-06-24T10:12:06;10.38;;;9.27;;
8889;SDS011;4481;43.406;24.454;2023-06-24T10:14:33;9.10;;;8.30;;
8889;SDS011;4481;43.406;24.454;2023-06-24T10:17:03;10.85;;;8.23;;
8889;SDS011;4481;43.406;24.454;2023-06-24T10:19:30;9.85;;;8.85;;
8889;SDS011;4481;43.406;24.454;2023-06-24T10:22:03;9.43;;;8.63;;
8889;SDS011;4481;43.406;24.454;2023-06-24T10:24:35;8.80;;;8.00;;
8889;SDS011;4481;43.406;24.454;2023-06-24T10:27:03;9.20;;;8.43;;
8889;SDS011;4481;43.406;24.454;2023-06-24T10:29:31;9.85;;;8.95;;
8889;SDS011;4481;43.406;24.454;2023-06-24T10:32:00;9.30;;;8.50;;
8889;SDS011;4481;43.406;24.454;2023-06-24T10:34:30;9.27;;;7.80;;
8889;SDS011;4481;43.406;24.454;2023-06-24T10:36:58;8.17;;;7.47;;
8889;SDS011;4481;43.406;24.454;2023-06-24T10:39:35;7.63;;;6.93;;
8889;SDS011;4481;43.406;24.454;2023-06-24T10:44:51;9.77;;;7.50;;
8889;SDS011;4481;43.406;24.454;2023-06-24T10:47:18;9.82;;;7.82;;
8889;SDS011;4481;43.406;24.454;2023-06-24T10:49:45;11.50;;;8.07;;
8889;SDS011;4481;43.406;24.454;2023-06-24T10:52:11;8.23;;;7.43;;
8889;SDS011;4481;43.406;24.454;2023-06-24T10:54:39;7.97;;;7.30;;
8889;SDS011;4481;43.406;24.454;2023-06-24T10:57:07;7.93;;;7.22;;
8889;SDS011;4481;43.406;24.454;2023-06-24T10:59:34;9.05;;;6.93;;
8889;SDS011;4481;43.406;24.454;2023-06-24T11:02:00;8.68;;;7.75;;
8889;SDS011;4481;43.406;24.454;2023-06-24T11:04:26;7.68;;;6.95;;
8889;SDS011;4481;43.406;24.454;2023-06-24T11:06:59;8.43;;;7.63;;
8889;SDS011;4481;43.406;24.454;2023-06-24T11:09:26;11.02;;;7.80;;
8889;SDS011;4481;43.406;24.454;2023-06-24T11:11:53;9.52;;;7.75;;
8889;SDS011;4481;43.406;24.454;2023-06-24T11:14:19;8.50;;;7.72;;
8889;SDS011;4481;43.406;24.454;2023-06-24T11:16:46;8.75;;;7.97;;
8889;SDS011;4481;43.406;24.454;2023-06-24T11:19:12;8.80;;;8.10;;
8889;SDS011;4481;43.406;24.454;2023-06-24T11:21:39;8.60;;;7.90;;
8889;SDS011;4481;43.406;24.454;2023-06-24T11:24:05;9.70;;;8.77;;
8889;SDS011;4481;43.406;24.454;2023-06-24T11:26:32;11.75;;;9.18;;
8889;SDS011;4481;43.406;24.454;2023-06-24T11:28:59;10.05;;;9.15;;
8889;SDS011;4481;43.406;24.454;2023-06-24T11:31:25;9.55;;;8.73;;
8889;SDS011;4481;43.406;24.454;2023-06-24T11:33:51;10.10;;;8.85;;
8889;SDS011;4481;43.406;24.454;2023-06-24T11:36:18;9.93;;;8.95;;
8889;SDS011;4481;43.406;24.454;2023-06-24T11:38:45;12.52;;;8.80;;
8889;SDS011;4481;43.406;24.454;2023-06-24T11:41:11;13.60;;;9.07;;
8889;SDS011;4481;43.406;24.454;2023-06-24T11:43:37;9.48;;;8.63;;
8889;SDS011;4481;43.406;24.454;2023-06-24T11:46:10;9.30;;;8.40;;
8889;SDS011;4481;43.406;24.454;2023-06-24T11:48:45;9.52;;;8.73;;
8889;SDS011;4481;43.406;24.454;2023-06-24T11:51:12;8.93;;;8.02;;
8889;SDS011;4481;43.406;24.454;2023-06-24T11:53:40;9.52;;;8.63;;
8889;SDS011;4481;43.406;24.454;2023-06-24T11:56:07;9.70;;;8.15;;
8889;SDS011;4481;43.406;24.454;2023-06-24T11:58:34;9.10;;;7.60;;
8889;SDS011;4481;43.406;24.454;2023-06-24T12:01:00;8.68;;;7.75;;
8889;SDS011;4481;43.406;24.454;2023-06-24T12:03:28;12.25;;;8.07;;
8889;SDS011;4481;43.406;24.454;2023-06-24T12:05:55;8.50;;;7.63;;
8889;SDS011;4481;43.406;24.454;2023-06-24T12:08:21;8.93;;;8.07;;
8889;SDS011;4481;43.406;24.454;2023-06-24T12:10:48;8.15;;;7.45;;
8889;SDS011;4481;43.406;24.454;2023-06-24T12:13:14;14.98;;;8.07;;
8889;SDS011;4481;43.406;24.454;2023-06-24T12:15:40;8.68;;;7.85;;
8889;SDS011;4481;43.406;24.454;2023-06-24T12:18:07;8.95;;;8.15;;
8889;SDS011;4481;43.406;24.454;2023-06-24T12:20:34;13.80;;;8.00;;
8889;SDS011;4481;43.406;24.454;2023-06-24T12:23:01;7.68;;;6.97;;
8889;SDS011;4481;43.406;24.454;2023-06-24T12:25:28;8.52;;;7.63;;
8889;SDS011;4481;43.406;24.454;2023-06-24T12:27:55;8.02;;;7.22;;
8889;SDS011;4481;43.406;24.454;2023-06-24T12:30:21;8.20;;;7.53;;
8889;SDS011;4481;43.406;24.454;2023-06-24T12:32:49;14.48;;;8.15;;
8889;SDS011;4481;43.406;24.454;2023-06-24T12:35:15;8.45;;;7.63;;
8889;SDS011;4481;43.406;24.454;2023-06-24T12:37:42;7.60;;;6.90;;
8889;SDS011;4481;43.406;24.454;2023-06-24T12:40:10;7.72;;;6.78;;
8889;SDS011;4481;43.406;24.454;2023-06-24T12:42:37;8.07;;;7.28;;
8889;SDS011;4481;43.406;24.454;2023-06-24T12:45:03;9.23;;;7.15;;
8889;SDS011;4481;43.406;24.454;2023-06-24T12:47:30;7.70;;;7.03;;
8889;SDS011;4481;43.406;24.454;2023-06-24T12:49:56;7.15;;;6.55;;
8889;SDS011;4481;43.406;24.454;2023-06-24T12:52:22;7.72;;;6.95;;
8889;SDS011;4481;43.406;24.454;2023-06-24T12:54:49;6.60;;;6.10;;
8889;SDS011;4481;43.406;24.454;2023-06-24T12:57:15;9.45;;;6.40;;
8889;SDS011;4481;43.406;24.454;2023-06-24T12:59:41;7.20;;;6.53;;
8889;SDS011;4481;43.406;24.454;2023-06-24T13:02:07;6.68;;;6.03;;
8889;SDS011;4481;43.406;24.454;2023-06-24T13:04:34;7.60;;;6.90;;
8889;SDS011;4481;43.406;24.454;2023-06-24T13:07:00;7.20;;;6.60;;
8889;SDS011;4481;43.406;24.454;2023-06-24T13:09:26;7.68;;;6.97;;
8889;SDS011;4481;43.406;24.454;2023-06-24T13:11:53;6.88;;;6.18;;
8889;SDS011;4481;43.406;24.454;2023-06-24T13:14:19;7.40;;;6.15;;
8889;SDS011;4481;43.406;24.454;2023-06-24T13:16:45;8.77;;;6.15;;
8889;SDS011;4481;43.406;24.454;2023-06-24T13:19:11;6.68;;;6.13;;
8889;SDS011;4481;43.406;24.454;2023-06-24T13:21:38;6.55;;;5.95;;
8889;SDS011;4481;43.406;24.454;2023-06-24T13:24:06;7.35;;;6.53;;
8889;SDS011;4481;43.406;24.454;2023-06-24T13:26:33;7.20;;;6.55;;
8889;SDS011;4481;43.406;24.454;2023-06-24T13:28:59;6.80;;;6.28;;
8889;SDS011;4481;43.406;24.454;2023-06-24T13:31:26;7.03;;;6.43;;
8889;SDS011;4481;43.406;24.454;2023-06-24T13:33:53;6.63;;;6.13;;
8889;SDS011;4481;43.406;24.454;2023-06-24T13:36:27;6.82;;;5.93;;
8889;SDS011;4481;43.406;24.454;2023-06-24T13:38:56;8.52;;;6.60;;
8889;SDS011;4481;43.406;24.454;2023-06-24T13:41:22;6.45;;;5.85;;
8889;SDS011;4481;43.406;24.454;2023-06-24T13:43:48;6.28;;;5.68;;
8889;SDS011;4481;43.406;24.454;2023-06-24T13:46:16;8.48;;;6.00;;
8889;SDS011;4481;43.406;24.454;2023-06-24T13:48:42;5.97;;;5.47;;
8889;SDS011;4481;43.406;24.454;2023-06-24T13:51:08;7.38;;;6.03;;
8889;SDS011;4481;43.406;24.454;2023-06-24T13:53:34;6.07;;;5.57;;
8889;SDS011;4481;43.406;24.454;2023-06-24T13:56:01;6.82;;;5.97;;
8889;SDS011;4481;43.406;24.454;2023-06-24T13:58:27;6.20;;;5.68;;
8889;SDS011;4481;43.406;24.454;2023-06-24T14:00:53;6.47;;;5.82;;
8889;SDS011;4481;43.406;24.454;2023-06-24T14:03:20;6.90;;;6.20;;
8889;SDS011;4481;43.406;24.454;2023-06-24T14:05:46;8.73;;;6.45;;
8889;SDS011;4481;43.406;24.454;2023-06-24T14:08:13;6.93;;;6.32;;
8889;SDS011;4481;43.406;24.454;2023-06-24T14:10:39;7.05;;;6.45;;
8889;SDS011;4481;43.406;24.454;2023-06-24T14:13:05;10.90;;;6.20;;
8889;SDS011;4481;43.406;24.454;2023-06-24T14:15:31;8.20;;;6.40;;
8889;SDS011;4481;43.406;24.454;2023-06-24T14:17:57;6.40;;;5.68;;
8889;SDS011;4481;43.406;24.454;2023-06-24T14:20:24;6.78;;;6.07;;
8889;SDS011;4481;43.406;24.454;2023-06-24T14:22:50;10.25;;;6.30;;
8889;SDS011;4481;43.406;24.454;2023-06-24T14:25:17;8.40;;;6.10;;
8889;SDS011;4481;43.406;24.454;2023-06-24T14:27:43;6.07;;;5.65;;
8889;SDS011;4481;43.406;24.454;2023-06-24T14:30:10;6.45;;;5.65;;
8889;SDS011;4481;43.406;24.454;2023-06-24T14:32:37;7.13;;;6.43;;
8889;SDS011;4481;43.406;24.454;2023-06-24T14:35:03;6.57;;;5.95;;
8889;SDS011;4481;43.406;24.454;2023-06-24T14:37:31;6.50;;;6.00;;
8889;SDS011;4481;43.406;24.454;2023-06-24T14:39:57;6.55;;;5.95;;
8889;SDS011;4481;43.406;24.454;2023-06-24T14:42:23;7.13;;;6.53;;
8889;SDS011;4481;43.406;24.454;2023-06-24T14:44:49;6.50;;;6.00;;
8889;SDS011;4481;43.406;24.454;2023-06-24T14:47:15;6.35;;;5.85;;
8889;SDS011;4481;43.406;24.454;2023-06-24T14:49:41;6.78;;;6.18;;